Time;durP1;ratioP1;P1;durP2;ratioP2;P2;SDS_P1;SDS_P2;PMS_P1;PMS_P2;Temp;Humidity;BMP_temperature;BMP_pressure;BME280_temperature;BME280_humidity;BME280_pressure;Samples;Min_cycle;Max_cycle;Signal;HPM_P1;HPM_P2
2022/05/02 00:01:59;;;;;;;5.57;4.20;;;11.50;90.00;;;;;;5090199;28;20044;-51
2022/05/02 00:04:26;;;;;;;4.93;3.95;;;11.50;90.10;;;;;;5086024;28;20040;-55
2022/05/02 00:06:53;;;;;;;4.70;3.90;;;11.40;90.00;;;;;;5081309;28;20037;-51
2022/05/02 00:09:19;;;;;;;5.53;4.35;;;11.40;90.00;;;;;;5080367;28;20067;-52
2022/05/02 00:11:46;;;;;;;8.40;4.38;;;11.50;90.00;;;;;;5092429;28;20044;-47
2022/05/02 00:14:13;;;;;;;5.65;4.57;;;11.40;90.00;;;;;;5091590;28;20064;-52
2022/05/02 00:16:40;;;;;;;6.63;4.15;;;11.40;90.00;;;;;;5094094;28;20048;-54
2022/05/02 00:19:06;;;;;;;6.10;4.65;;;11.40;90.10;;;;;;5088760;28;20091;-50
2022/05/02 00:21:33;;;;;;;8.40;5.03;;;11.40;90.30;;;;;;5081124;28;20070;-52
2022/05/02 00:24:00;;;;;;;6.25;4.82;;;11.40;90.20;;;;;;5078516;28;20548;-51
2022/05/02 00:26:27;;;;;;;5.05;4.50;;;11.40;90.20;;;;;;5078013;28;20115;-51
2022/05/02 00:28:53;;;;;;;5.85;4.65;;;11.30;90.20;;;;;;5074388;28;20036;-51
2022/05/02 00:31:20;;;;;;;5.93;4.50;;;11.30;90.20;;;;;;5075767;28;20576;-52
2022/05/02 00:33:49;;;;;;;8.40;5.10;;;11.30;90.30;;;;;;5077037;28;20111;-55
2022/05/02 00:36:16;;;;;;;6.78;4.80;;;11.30;90.40;;;;;;5081600;28;20131;-54
2022/05/02 00:38:43;;;;;;;6.40;4.45;;;11.30;90.40;;;;;;5074214;28;20044;-49
2022/05/02 00:41:10;;;;;;;6.35;4.95;;;11.20;90.50;;;;;;5073281;28;20040;-54
2022/05/02 00:43:37;;;;;;;5.15;4.18;;;11.20;90.40;;;;;;5074479;28;20064;-49
2022/05/02 00:46:03;;;;;;;6.15;4.60;;;11.20;90.50;;;;;;5075834;28;20493;-49
2022/05/02 00:48:30;;;;;;;7.28;4.57;;;11.20;90.50;;;;;;5078550;28;20036;-51
2022/05/02 00:50:57;;;;;;;5.63;4.70;;;11.10;90.60;;;;;;5076731;28;20051;-51
2022/05/02 00:53:24;;;;;;;6.55;5.07;;;11.10;90.70;;;;;;5073961;28;20044;-49
2022/05/02 00:55:51;;;;;;;6.43;4.70;;;11.20;90.70;;;;;;5086390;28;20048;-52
2022/05/02 00:58:18;;;;;;;6.55;5.05;;;11.10;90.70;;;;;;5078155;28;20450;-48
2022/05/02 01:00:44;;;;;;;6.68;5.10;;;11.10;90.80;;;;;;5073896;28;20430;-49
2022/05/02 01:03:11;;;;;;;5.93;4.63;;;11.10;90.80;;;;;;5084883;28;20240;-51
2022/05/02 01:08:25;;;;;;;5.78;4.50;;;11.10;90.80;;;;;;5091830;28;20048;-53
2022/05/02 01:10:52;;;;;;;7.70;4.55;;;11.10;90.90;;;;;;5093226;28;20071;-52
2022/05/02 01:13:19;;;;;;;7.32;4.65;;;11.20;90.90;;;;;;5091928;28;20437;-49
2022/05/02 01:15:46;;;;;;;7.13;5.07;;;11.20;90.80;;;;;;5093189;28;20075;-47
2022/05/02 01:18:13;;;;;;;7.90;4.90;;;11.20;90.80;;;;;;5088050;28;20051;-49
2022/05/02 01:20:39;;;;;;;5.38;4.82;;;11.20;90.80;;;;;;5079122;28;20120;-53
2022/05/02 01:23:06;;;;;;;7.80;4.78;;;11.20;90.90;;;;;;5084568;28;20066;-52
2022/05/02 01:25:33;;;;;;;5.60;4.32;;;11.20;90.90;;;;;;5073468;28;20506;-52
2022/05/02 01:27:59;;;;;;;9.00;5.18;;;11.10;90.80;;;;;;5077437;28;20085;-51
2022/05/02 01:30:26;;;;;;;7.00;4.60;;;11.20;90.90;;;;;;5080165;28;20044;-52
2022/05/02 01:32:53;;;;;;;5.57;4.53;;;11.10;91.00;;;;;;5076814;28;20502;-50
2022/05/02 01:35:19;;;;;;;6.75;4.75;;;11.10;91.00;;;;;;5074565;28;20070;-53
2022/05/02 01:37:46;;;;;;;5.50;4.65;;;11.00;91.10;;;;;;5073416;28;20572;-53
2022/05/02 01:40:13;;;;;;;6.47;4.75;;;11.00;91.10;;;;;;5073477;28;20032;-53
2022/05/02 01:42:40;;;;;;;6.40;5.15;;;11.00;91.20;;;;;;5083212;28;20481;-53
2022/05/02 01:45:06;;;;;;;8.25;5.18;;;11.00;91.20;;;;;;5076641;28;20036;-50
2022/05/02 01:47:33;;;;;;;7.57;5.15;;;11.00;91.30;;;;;;5073532;28;20033;-49
2022/05/02 01:50:00;;;;;;;6.13;4.63;;;11.00;91.30;;;;;;5086599;28;20066;-52
2022/05/02 01:52:27;;;;;;;5.53;4.93;;;10.90;91.40;;;;;;5084966;28;20048;-52
2022/05/02 01:54:53;;;;;;;6.78;4.70;;;10.90;91.40;;;;;;5096763;28;20525;-55
2022/05/02 01:57:20;;;;;;;5.88;5.15;;;10.90;91.50;;;;;;5079259;28;20045;-53
2022/05/02 01:59:47;;;;;;;8.02;5.03;;;10.90;91.70;;;;;;5077236;28;20033;-50
2022/05/02 02:02:13;;;;;;;5.50;5.00;;;10.80;92.00;;;;;;5083843;28;20040;-54
2022/05/02 02:07:26;;;;;;;6.45;5.18;;;10.70;92.20;;;;;;5077167;28;20052;-50
2022/05/02 02:09:52;;;;;;;8.10;6.10;;;10.60;92.30;;;;;;5096621;28;20040;-52
2022/05/02 02:12:19;;;;;;;7.38;5.50;;;10.70;92.30;;;;;;5095002;28;20089;-49
2022/05/02 02:14:46;;;;;;;7.05;5.20;;;10.60;92.30;;;;;;5096402;28;20111;-50
2022/05/02 02:17:13;;;;;;;7.30;5.25;;;10.60;92.40;;;;;;5080152;28;20553;-47
2022/05/02 02:19:40;;;;;;;7.93;5.43;;;10.60;92.60;;;;;;5089326;28;20036;-61
2022/05/02 02:22:16;;;;;;;8.05;5.80;;;10.60;92.80;;;;;;5089006;28;20521;-50
2022/05/02 02:24:43;;;;;;;6.45;5.82;;;10.60;92.90;;;;;;5095289;28;20039;-55
2022/05/02 02:27:10;;;;;;;7.70;6.43;;;10.60;93.00;;;;;;5096247;28;20047;-55
2022/05/02 02:29:36;;;;;;;7.90;6.10;;;10.60;93.00;;;;;;5092734;28;20036;-53
2022/05/02 02:32:03;;;;;;;8.95;6.25;;;10.60;93.20;;;;;;5096179;28;20075;-52
2022/05/02 02:34:30;;;;;;;6.25;5.57;;;10.60;93.30;;;;;;5089985;28;20040;-53
2022/05/02 02:36:56;;;;;;;7.93;5.80;;;10.50;93.50;;;;;;5096121;28;20040;-50
2022/05/02 02:39:23;;;;;;;7.32;5.90;;;10.40;93.60;;;;;;5095242;28;20402;-51
2022/05/02 02:41:50;;;;;;;7.38;6.00;;;10.30;93.80;;;;;;5087539;28;20043;-52
2022/05/02 02:44:17;;;;;;;7.38;6.25;;;10.30;93.80;;;;;;5076303;28;20051;-53
2022/05/02 02:46:43;;;;;;;6.63;5.60;;;10.30;94.00;;;;;;5082689;28;20085;-53
2022/05/02 02:49:10;;;;;;;7.47;5.55;;;10.30;94.10;;;;;;5092707;28;20048;-54
2022/05/02 02:51:37;;;;;;;8.32;6.70;;;10.30;94.10;;;;;;5077165;28;20166;-50
2022/05/02 02:54:03;;;;;;;6.95;6.13;;;10.30;94.40;;;;;;5076287;28;20051;-51
2022/05/02 02:56:30;;;;;;;8.15;6.30;;;10.30;94.20;;;;;;5095700;28;20442;-55
2022/05/02 02:58:57;;;;;;;7.68;6.18;;;10.30;94.20;;;;;;5087935;28;20076;-46
2022/05/02 03:01:23;;;;;;;8.10;6.68;;;10.30;94.20;;;;;;5086018;28;20058;-56
2022/05/02 03:03:50;;;;;;;9.07;6.78;;;10.30;94.20;;;;;;5075877;28;20041;-50
2022/05/02 03:06:17;;;;;;;10.20;6.07;;;10.30;94.20;;;;;;5095286;28;20040;-52
2022/05/02 03:08:44;;;;;;;8.27;6.05;;;10.30;94.30;;;;;;5087348;28;20537;-55
2022/05/02 03:11:11;;;;;;;8.27;6.40;;;10.30;94.30;;;;;;5093515;28;20113;-53
2022/05/02 03:13:38;;;;;;;7.88;6.43;;;10.30;94.40;;;;;;5076428;28;20048;-55
2022/05/02 03:16:05;;;;;;;7.28;6.43;;;10.20;94.50;;;;;;5076926;28;20071;-52
2022/05/02 03:18:33;;;;;;;7.00;6.30;;;10.20;94.40;;;;;;5093363;28;20043;-52
2022/05/02 03:21:00;;;;;;;7.68;6.55;;;10.20;94.40;;;;;;5088080;28;20459;-57
2022/05/02 03:23:27;;;;;;;7.88;7.00;;;10.20;94.60;;;;;;5076003;28;20070;-51
2022/05/02 03:25:54;;;;;;;7.55;6.55;;;10.20;94.60;;;;;;5075913;28;20450;-53
2022/05/02 03:28:21;;;;;;;9.43;7.00;;;10.10;94.60;;;;;;5075800;28;20466;-52
2022/05/02 03:30:48;;;;;;;9.27;7.13;;;10.10;94.70;;;;;;5076263;28;20396;-49
2022/05/02 03:33:15;;;;;;;8.02;6.93;;;10.10;94.80;;;;;;5089394;28;20036;-50
2022/05/02 03:35:41;;;;;;;7.55;6.80;;;10.00;94.90;;;;;;5095135;28;20459;-55
2022/05/02 03:38:08;;;;;;;10.02;7.20;;;10.00;95.00;;;;;;5094956;28;20040;-54
2022/05/02 03:40:35;;;;;;;8.02;7.20;;;10.00;94.90;;;;;;5094168;28;20399;-54
2022/05/02 03:43:01;;;;;;;9.65;7.10;;;10.00;94.90;;;;;;5076535;28;20082;-48
2022/05/02 03:45:28;;;;;;;8.38;7.32;;;10.10;94.80;;;;;;5083299;28;20091;-50
2022/05/02 03:47:55;;;;;;;7.65;6.85;;;10.10;94.90;;;;;;5082556;28;20431;-48
2022/05/02 03:50:21;;;;;;;9.20;8.07;;;10.10;94.90;;;;;;5075149;28;20063;-49
2022/05/02 03:52:53;;;;;;;9.38;7.95;;;10.10;94.90;;;;;;5081705;28;20045;-45
2022/05/02 03:55:20;;;;;;;11.20;6.72;;;10.10;95.00;;;;;;5075141;28;20131;-49
2022/05/02 03:57:46;;;;;;;9.73;7.28;;;10.20;95.00;;;;;;5076537;28;20487;-50
2022/05/02 04:00:13;;;;;;;10.90;7.50;;;10.10;95.10;;;;;;5076781;28;20506;-46
2022/05/02 04:02:40;;;;;;;7.75;6.95;;;10.20;95.20;;;;;;5084027;28;20028;-48
2022/05/02 04:05:07;;;;;;;8.63;7.13;;;10.20;95.10;;;;;;5083282;28;20453;-47
2022/05/02 04:07:34;;;;;;;8.75;7.45;;;10.20;95.00;;;;;;5086176;28;20044;-52
2022/05/02 04:10:00;;;;;;;9.20;7.68;;;10.20;95.00;;;;;;5086857;28;20043;-50
2022/05/02 04:12:27;;;;;;;8.80;7.60;;;10.30;94.90;;;;;;5080719;28;20048;-51
2022/05/02 04:14:54;;;;;;;9.43;8.10;;;10.30;94.90;;;;;;5086057;28;20045;-51
2022/05/02 04:17:21;;;;;;;8.57;7.45;;;10.30;95.10;;;;;;5086837;28;20511;-48
2022/05/02 04:19:47;;;;;;;9.90;7.60;;;10.30;95.10;;;;;;5093090;28;20043;-50
2022/05/02 04:22:14;;;;;;;10.60;7.78;;;10.20;95.10;;;;;;5081849;28;20442;-46
2022/05/02 04:24:41;;;;;;;9.38;7.53;;;10.20;95.10;;;;;;5091656;28;20040;-49
2022/05/02 04:27:08;;;;;;;10.15;7.90;;;10.20;95.20;;;;;;5081761;28;20036;-47
2022/05/02 04:29:34;;;;;;;11.13;7.60;;;10.20;95.10;;;;;;5086242;28;20093;-50
2022/05/02 04:32:01;;;;;;;8.40;7.32;;;10.20;95.20;;;;;;5089777;28;20041;-49
2022/05/02 04:34:28;;;;;;;8.48;7.60;;;10.20;95.20;;;;;;5086759;28;20540;-51
2022/05/02 04:36:55;;;;;;;10.27;7.45;;;10.20;95.30;;;;;;5093836;28;20043;-51
2022/05/02 04:39:22;;;;;;;8.85;7.63;;;10.20;95.30;;;;;;5092687;28;20040;-53
2022/05/02 04:41:48;;;;;;;13.77;8.05;;;10.20;95.30;;;;;;5089099;28;20406;-51
2022/05/02 04:44:15;;;;;;;8.45;7.38;;;10.20;95.20;;;;;;5081501;28;20036;-52
2022/05/02 04:46:42;;;;;;;10.07;8.30;;;10.30;95.20;;;;;;5079413;28;20032;-51
2022/05/02 04:49:08;;;;;;;10.70;8.60;;;10.30;95.20;;;;;;5077155;28;20502;-51
2022/05/02 04:51:35;;;;;;;11.05;8.05;;;10.30;95.20;;;;;;5084869;28;20076;-53
2022/05/02 04:54:02;;;;;;;13.43;7.57;;;10.30;95.10;;;;;;5090449;28;20044;-55
2022/05/02 04:56:29;;;;;;;10.23;7.93;;;10.30;95.10;;;;;;5088184;28;20033;-50
2022/05/02 04:58:55;;;;;;;9.35;8.10;;;10.30;95.20;;;;;;5073786;28;20094;-56
2022/05/02 05:01:22;;;;;;;10.15;8.35;;;10.30;95.10;;;;;;5076834;28;20043;-54
2022/05/02 05:03:49;;;;;;;10.30;8.48;;;10.30;95.10;;;;;;5077199;28;20036;-53
2022/05/02 05:06:16;;;;;;;9.63;7.32;;;10.30;95.10;;;;;;5077520;28;20055;-48
2022/05/02 05:08:43;;;;;;;8.93;7.75;;;10.40;95.10;;;;;;5082208;28;20036;-50
2022/05/02 05:11:09;;;;;;;12.55;7.70;;;10.40;94.90;;;;;;5080020;28;21749;-51
2022/05/02 05:13:36;;;;;;;9.77;7.88;;;10.30;95.00;;;;;;5077700;28;20067;-54
2022/05/02 05:16:21;;;;;;;10.88;8.02;;;10.30;95.10;;;;;;5083773;28;20498;-51
2022/05/02 05:18:48;;;;;;;8.77;7.50;;;10.30;95.30;;;;;;5084645;28;20533;-54
2022/05/02 05:21:15;;;;;;;9.38;8.38;;;10.40;95.10;;;;;;5078819;28;20044;-51
2022/05/02 05:23:53;;;;;;;11.52;7.93;;;10.40;94.90;;;;;;5079518;28;20041;-48
2022/05/02 05:26:20;;;;;;;11.32;7.78;;;10.50;94.90;;;;;;5077183;28;20132;-50
2022/05/02 05:28:47;;;;;;;10.38;8.27;;;10.50;94.80;;;;;;5076464;28;20087;-51
2022/05/02 05:31:13;;;;;;;11.82;8.23;;;10.50;94.80;;;;;;5074242;28;20076;-55
2022/05/02 05:33:40;;;;;;;11.50;8.63;;;10.50;94.90;;;;;;5086266;28;20036;-53
2022/05/02 05:36:07;;;;;;;10.25;8.57;;;10.50;94.90;;;;;;5084796;28;20044;-49
2022/05/02 05:38:33;;;;;;;9.63;8.32;;;10.60;94.80;;;;;;5084859;28;20041;-54
2022/05/02 05:41:00;;;;;;;10.95;8.27;;;10.60;94.80;;;;;;5090873;28;20093;-48
2022/05/02 05:43:27;;;;;;;13.77;11.50;;;10.60;94.90;;;;;;5087211;28;20051;-51
2022/05/02 05:45:54;;;;;;;12.88;8.80;;;10.70;94.80;;;;;;5078268;28;20462;-50
2022/05/02 05:48:20;;;;;;;9.77;8.55;;;10.70;95.10;;;;;;5078752;28;20455;-50
2022/05/02 05:50:47;;;;;;;12.75;8.60;;;10.80;94.60;;;;;;5085868;28;20101;-53
2022/05/02 05:53:14;;;;;;;9.80;8.50;;;10.80;94.60;;;;;;5082048;28;20037;-55
2022/05/02 05:55:41;;;;;;;12.20;8.60;;;10.90;94.50;;;;;;5092052;28;20075;-51
2022/05/02 05:58:08;;;;;;;10.05;9.05;;;11.00;94.30;;;;;;5090863;28;20040;-54
2022/05/02 06:00:34;;;;;;;11.07;9.35;;;11.00;94.20;;;;;;5079216;28;20518;-51
2022/05/02 06:03:01;;;;;;;11.38;9.05;;;11.10;94.40;;;;;;5077757;28;20032;-51
2022/05/02 06:05:28;;;;;;;11.45;9.15;;;11.10;94.20;;;;;;5080050;28;20371;-48
2022/05/02 06:07:55;;;;;;;10.75;8.95;;;11.20;94.00;;;;;;5078698;28;20037;-52
2022/05/02 06:10:21;;;;;;;12.02;10.15;;;11.20;94.00;;;;;;5076469;28;20037;-51
2022/05/02 06:12:48;;;;;;;12.95;10.20;;;11.20;94.10;;;;;;5082454;28;20040;-46
2022/05/02 06:20:46;;;;;;;13.13;10.25;;;11.10;94.10;;;;;;5084847;28;20071;-50
2022/05/02 06:23:16;;;;;;;13.88;10.90;;;11.20;94.20;;;;;;5089718;28;20032;-49
2022/05/02 06:25:42;;;;;;;16.10;11.95;;;11.20;94.10;;;;;;5082986;28;20082;-53
2022/05/02 06:28:09;;;;;;;13.52;11.52;;;11.20;94.10;;;;;;5077757;28;20154;-49
2022/05/02 06:30:36;;;;;;;15.65;12.85;;;11.20;94.20;;;;;;5073898;28;20066;-49
2022/05/02 06:33:03;;;;;;;18.17;14.02;;;11.10;94.30;;;;;;5076848;28;20040;-52
2022/05/02 06:35:29;;;;;;;15.38;13.65;;;11.10;94.20;;;;;;5073620;28;20048;-50
2022/05/02 06:37:56;;;;;;;16.63;13.85;;;11.10;94.50;;;;;;5079530;28;20053;-53
2022/05/02 06:40:23;;;;;;;17.95;15.43;;;11.10;94.60;;;;;;5081296;28;20044;-51
2022/05/02 06:42:50;;;;;;;21.00;17.60;;;11.10;94.90;;;;;;5081555;28;20071;-51
2022/05/02 06:45:16;;;;;;;19.58;16.70;;;11.20;95.00;;;;;;5087599;28;20047;-52
2022/05/02 06:47:43;;;;;;;20.60;17.63;;;11.20;94.90;;;;;;5081203;28;20532;-52
2022/05/02 06:50:10;;;;;;;19.60;16.40;;;11.20;94.90;;;;;;5081016;28;20940;-51
2022/05/02 06:52:36;;;;;;;18.90;16.70;;;11.20;94.90;;;;;;5086926;28;20102;-48
2022/05/02 06:55:03;;;;;;;17.80;15.98;;;11.20;94.90;;;;;;5081606;28;20062;-52
2022/05/02 06:57:30;;;;;;;16.70;14.90;;;11.30;94.80;;;;;;5078541;28;20078;-50
2022/05/02 06:59:57;;;;;;;17.83;15.02;;;11.40;94.60;;;;;;5088352;28;20434;-50
2022/05/02 07:02:24;;;;;;;16.70;13.82;;;11.40;94.50;;;;;;5082743;28;20111;-54
2022/05/02 07:04:51;;;;;;;16.95;13.68;;;11.40;94.40;;;;;;5078241;28;20041;-53
2022/05/02 07:07:18;;;;;;;17.73;14.18;;;11.40;94.40;;;;;;5083413;28;20068;-50
2022/05/02 07:09:52;;;;;;;17.10;14.05;;;11.40;94.30;;;;;;5087196;28;20487;-52
2022/05/02 07:12:19;;;;;;;18.02;15.07;;;11.50;94.30;;;;;;5083688;28;20060;-48
2022/05/02 07:14:46;;;;;;;16.30;14.38;;;11.50;94.30;;;;;;5081794;28;20042;-51
2022/05/02 07:17:13;;;;;;;13.55;12.20;;;11.60;94.20;;;;;;5074778;28;20044;-51
2022/05/02 07:19:40;;;;;;;14.38;11.07;;;11.60;93.60;;;;;;5081603;28;20415;-51
2022/05/02 07:22:07;;;;;;;12.57;10.43;;;11.70;93.20;;;;;;5087415;28;20090;-52
2022/05/02 07:24:33;;;;;;;12.82;10.27;;;11.80;93.00;;;;;;5082211;28;20037;-51
2022/05/02 07:27:01;;;;;;;12.13;10.18;;;11.80;92.80;;;;;;5074590;28;20071;-54
2022/05/02 07:29:28;;;;;;;12.52;10.00;;;11.80;92.90;;;;;;5075945;28;20445;-54
2022/05/02 07:31:55;;;;;;;12.57;10.35;;;11.80;92.90;;;;;;5081947;28;20071;-53
2022/05/02 07:34:21;;;;;;;13.13;8.57;;;11.90;92.50;;;;;;5083744;28;20052;-54
2022/05/02 07:36:52;;;;;;;10.73;9.23;;;11.90;92.30;;;;;;5082091;28;20036;-55
2022/05/02 07:39:19;;;;;;;12.32;8.52;;;12.00;92.00;;;;;;5075569;28;20041;-56
2022/05/02 07:41:46;;;;;;;10.52;7.60;;;11.90;91.80;;;;;;5088665;28;20500;-54
2022/05/02 07:44:13;;;;;;;10.40;7.78;;;11.90;91.80;;;;;;5089267;28;20036;-51
2022/05/02 07:46:42;;;;;;;10.25;7.57;;;11.80;91.80;;;;;;5090132;28;20495;-52
2022/05/02 07:49:08;;;;;;;9.63;7.72;;;11.90;92.00;;;;;;5081778;28;20044;-52
2022/05/02 07:51:35;;;;;;;9.10;7.70;;;12.00;91.70;;;;;;5088222;28;20052;-50
2022/05/02 07:54:02;;;;;;;13.63;9.32;;;12.10;91.80;;;;;;5080672;28;20055;-51
2022/05/02 07:56:28;;;;;;;10.82;8.48;;;12.20;91.60;;;;;;5093051;28;20047;-51
2022/05/02 07:58:55;;;;;;;11.07;8.25;;;12.30;91.60;;;;;;5082414;28;20529;-53
2022/05/02 08:01:23;;;;;;;10.25;8.15;;;12.30;91.60;;;;;;5083879;28;20051;-53
2022/05/02 08:03:49;;;;;;;12.60;8.20;;;12.40;91.40;;;;;;5084585;28;20046;-52
2022/05/02 08:06:17;;;;;;;10.82;8.20;;;12.50;91.20;;;;;;5084123;28;20067;-52
2022/05/02 08:08:44;;;;;;;10.25;7.78;;;12.50;91.20;;;;;;5081063;28;20561;-53
2022/05/02 08:11:11;;;;;;;10.30;7.10;;;12.50;91.20;;;;;;5078476;28;20052;-52
2022/05/02 08:13:38;;;;;;;9.57;6.90;;;12.60;91.00;;;;;;5079400;28;21019;-54
2022/05/02 08:16:06;;;;;;;7.57;6.65;;;12.50;90.90;;;;;;5075598;28;20032;-52
2022/05/02 08:18:33;;;;;;;8.85;6.80;;;12.60;91.30;;;;;;5080608;28;20047;-48
2022/05/02 08:21:00;;;;;;;8.45;7.47;;;12.70;91.20;;;;;;5089013;28;20542;-50
2022/05/02 08:28:57;;;;;;;8.13;7.28;;;13.10;90.00;;;;;;5084009;28;20075;-49
2022/05/02 08:31:24;;;;;;;8.75;6.97;;;13.20;90.10;;;;;;5081551;28;20032;-43
2022/05/02 08:33:51;;;;;;;10.40;7.57;;;13.20;90.00;;;;;;5080268;28;20032;-45
2022/05/02 08:36:17;;;;;;;9.20;7.20;;;13.20;89.70;;;;;;5080378;28;20427;-44
2022/05/02 08:38:44;;;;;;;8.52;5.65;;;13.20;90.00;;;;;;5074353;28;20032;-46
2022/05/02 08:41:11;;;;;;;6.55;4.63;;;13.30;88.30;;;;;;5079808;28;20487;-45
2022/05/02 08:43:38;;;;;;;6.28;4.60;;;13.40;87.90;;;;;;5084902;28;20036;-49
2022/05/02 08:46:04;;;;;;;6.47;4.60;;;13.60;87.00;;;;;;5093459;28;20044;-41
2022/05/02 08:48:32;;;;;;;7.85;4.20;;;13.80;86.10;;;;;;5093342;28;20502;-44
2022/05/02 08:51:04;;;;;;;5.35;3.95;;;13.90;84.30;;;;;;5080885;28;20097;-45
2022/05/02 08:53:30;;;;;;;4.75;3.95;;;14.00;84.50;;;;;;5081943;28;20111;-44
2022/05/02 08:55:57;;;;;;;7.05;4.25;;;14.10;84.70;;;;;;5077324;28;20070;-43
2022/05/02 08:58:24;;;;;;;8.57;4.38;;;14.20;83.80;;;;;;5092937;28;20028;-42
2022/05/02 09:00:51;;;;;;;5.50;4.10;;;14.30;83.40;;;;;;5079054;28;20040;-48
2022/05/02 09:03:18;;;;;;;5.55;3.92;;;14.30;83.90;;;;;;5076575;28;20041;-46
2022/05/02 09:05:46;;;;;;;6.00;4.38;;;14.40;82.90;;;;;;5074038;28;20044;-44
2022/05/02 09:08:12;;;;;;;5.90;3.50;;;14.30;82.20;;;;;;5078934;28;20090;-41
2022/05/02 09:10:39;;;;;;;4.72;3.42;;;14.30;83.10;;;;;;5072443;28;20041;-41
2022/05/02 09:13:06;;;;;;;4.45;3.30;;;14.50;82.80;;;;;;5090033;28;20505;-41
2022/05/02 09:15:33;;;;;;;6.72;3.80;;;14.60;83.00;;;;;;5093183;28;20055;-41
2022/05/02 09:18:00;;;;;;;6.00;3.65;;;14.70;81.80;;;;;;5092174;28;20086;-41
2022/05/02 09:20:27;;;;;;;5.22;3.80;;;14.80;81.50;;;;;;5089472;28;20056;-49
2022/05/02 09:22:54;;;;;;;5.63;3.22;;;14.90;81.60;;;;;;5079548;28;20086;-46
2022/05/02 09:25:21;;;;;;;5.13;3.67;;;15.10;81.40;;;;;;5081102;28;20041;-42
2022/05/02 09:27:48;;;;;;;4.93;3.25;;;15.10;81.20;;;;;;5086741;28;20491;-44
2022/05/02 09:30:14;;;;;;;4.88;3.28;;;15.30;80.40;;;;;;5076857;28;20585;-50
2022/05/02 09:32:41;;;;;;;5.78;3.72;;;15.40;80.50;;;;;;5081320;28;20044;-53
2022/05/02 09:35:08;;;;;;;6.45;4.32;;;15.60;79.70;;;;;;5086106;28;20486;-49
2022/05/02 09:37:35;;;;;;;7.65;4.07;;;15.70;79.20;;;;;;5083134;28;20094;-45
2022/05/02 09:40:02;;;;;;;4.55;3.60;;;15.70;78.90;;;;;;5077420;28;20049;-48
2022/05/02 09:42:28;;;;;;;4.90;3.67;;;15.70;78.00;;;;;;5075165;28;20063;-47
2022/05/02 12:55:55;;;;;;;7.25;4.68;;;16.00;75.40;;;;;;5172590;27;20397;-44
2022/05/02 13:01:22;;;;;;;6.18;4.72;;;16.10;75.60;;;;;;5106078;27;20130;-47
2022/05/02 13:03:48;;;;;;;6.30;4.88;;;16.20;75.40;;;;;;5152175;27;20039;-49
2022/05/02 13:06:15;;;;;;;9.45;6.03;;;16.20;75.10;;;;;;5151468;27;20027;-44
2022/05/02 13:08:42;;;;;;;7.15;5.35;;;16.10;74.70;;;;;;5152136;27;20042;-46
2022/05/02 13:11:09;;;;;;;9.25;5.65;;;16.10;75.70;;;;;;5133449;27;20485;-44
2022/05/02 13:13:37;;;;;;;7.68;5.50;;;16.20;75.20;;;;;;5151853;27;20084;-44
2022/05/02 13:16:03;;;;;;;6.82;5.25;;;16.30;75.60;;;;;;5151935;27;20039;-45
2022/05/02 13:18:30;;;;;;;5.72;4.95;;;16.50;74.40;;;;;;5151973;27;20045;-49
2022/05/02 13:21:01;;;;;;;7.57;5.43;;;16.60;74.00;;;;;;5151880;27;20542;-52
2022/05/02 13:23:27;;;;;;;6.53;5.05;;;16.70;72.80;;;;;;5151683;27;20074;-42
2022/05/02 13:25:54;;;;;;;6.63;4.80;;;16.80;72.40;;;;;;5133262;27;20550;-44
2022/05/02 13:28:22;;;;;;;5.80;4.88;;;16.80;72.80;;;;;;5151685;27;20096;-43
2022/05/02 13:30:49;;;;;;;7.55;5.55;;;16.90;72.90;;;;;;5151753;27;20529;-43
2022/05/02 13:33:15;;;;;;;7.47;5.47;;;16.90;72.90;;;;;;5151309;27;20035;-42
2022/05/02 13:35:42;;;;;;;7.40;5.00;;;17.00;72.60;;;;;;5151382;27;20049;-46
2022/05/02 13:38:10;;;;;;;6.05;4.88;;;17.10;72.90;;;;;;5133285;27;20035;-44
2022/05/02 13:40:37;;;;;;;8.30;5.68;;;17.30;72.50;;;;;;5151444;27;20042;-45
2022/05/02 13:43:03;;;;;;;5.55;4.45;;;17.30;72.40;;;;;;5132921;27;20092;-45
2022/05/02 13:45:30;;;;;;;5.25;4.72;;;17.40;71.80;;;;;;5151173;27;20043;-47
2022/05/02 13:47:57;;;;;;;6.95;5.30;;;17.40;71.00;;;;;;5132143;27;20043;-42
2022/05/02 13:50:26;;;;;;;6.38;5.32;;;17.20;71.50;;;;;;5151231;27;20054;-42
2022/05/02 13:52:53;;;;;;;7.93;5.13;;;17.10;71.30;;;;;;5150482;27;20046;-43
2022/05/02 13:55:42;;;;;;;7.97;5.25;;;17.20;71.90;;;;;;5150544;27;20522;-41
2022/05/02 13:58:09;;;;;;;4.60;4.18;;;17.30;71.30;;;;;;5150861;27;20046;-44
2022/05/02 14:01:26;;;;;;;7.78;4.38;;;17.40;71.20;;;;;;5150882;27;20073;-42
2022/05/02 14:03:26;;;;;;;5.65;4.13;;;17.50;71.40;;;;;;5150783;27;20038;-45
2022/05/02 14:08:20;;;;;;;6.40;4.47;;;17.70;70.70;;;;;;5137032;27;20074;-46
2022/05/02 14:10:47;;;;;;;5.22;3.95;;;17.70;70.30;;;;;;5118733;27;20047;-45
2022/05/02 14:13:14;;;;;;;5.13;4.20;;;17.70;70.30;;;;;;5136949;27;20581;-45
2022/05/02 14:15:40;;;;;;;4.60;3.70;;;17.70;70.80;;;;;;5136475;27;20039;-47
2022/05/02 14:18:09;;;;;;;6.32;3.88;;;17.80;70.30;;;;;;5136979;27;20440;-50
2022/05/02 14:20:36;;;;;;;5.85;3.15;;;17.80;70.00;;;;;;5118421;27;20042;-51
2022/05/02 14:23:03;;;;;;;4.93;3.78;;;17.80;70.40;;;;;;5118334;27;20064;-47
2022/05/02 14:25:30;;;;;;;6.03;3.80;;;17.80;70.00;;;;;;5118082;27;20048;-45
2022/05/02 14:27:58;;;;;;;5.90;4.00;;;18.00;70.20;;;;;;5136263;27;20134;-44
2022/05/02 14:30:26;;;;;;;6.55;4.18;;;18.20;69.60;;;;;;5118697;27;20047;-44
2022/05/02 14:32:54;;;;;;;6.85;4.10;;;18.30;69.00;;;;;;5136562;27;20067;-45
2022/05/02 14:35:21;;;;;;;5.15;4.30;;;18.30;68.60;;;;;;5136488;27;20054;-44
2022/05/02 14:37:48;;;;;;;5.03;3.63;;;18.20;68.40;;;;;;5136427;27;20047;-43
2022/05/02 14:40:14;;;;;;;6.88;4.18;;;18.30;69.00;;;;;;5117968;27;20070;-43
2022/05/02 14:42:42;;;;;;;6.35;3.88;;;18.30;69.40;;;;;;5136356;27;20137;-43
2022/05/02 14:45:09;;;;;;;5.72;4.57;;;18.20;69.30;;;;;;5136379;27;20080;-43
2022/05/02 14:47:35;;;;;;;5.65;4.50;;;18.00;69.50;;;;;;5136251;27;20043;-43
2022/05/02 14:50:03;;;;;;;7.15;4.50;;;18.00;69.50;;;;;;5118113;27;20035;-46
2022/05/02 14:52:30;;;;;;;5.88;4.82;;;18.00;69.20;;;;;;5136024;27;20064;-43
2022/05/02 14:54:57;;;;;;;5.60;4.30;;;18.00;68.80;;;;;;5135158;27;20073;-44
2022/05/02 14:57:24;;;;;;;7.20;4.75;;;18.00;69.20;;;;;;5135481;27;20423;-43
2022/05/02 14:59:51;;;;;;;7.05;4.55;;;18.10;68.60;;;;;;5136012;27;20448;-42
2022/05/02 15:02:17;;;;;;;6.55;4.10;;;18.10;67.90;;;;;;5135266;27;20066;-42
2022/05/02 15:04:44;;;;;;;5.68;4.05;;;18.00;68.40;;;;;;5129405;27;20081;-43
2022/05/02 15:07:12;;;;;;;4.15;3.60;;;17.90;68.20;;;;;;5128790;27;20435;-43
2022/05/02 15:12:24;;;;;;;6.75;3.92;;;18.00;68.30;;;;;;5128753;27;20036;-44
2022/05/02 15:14:53;;;;;;;7.65;5.15;;;17.90;68.40;;;;;;5128609;27;20073;-42
2022/05/02 15:17:20;;;;;;;5.93;3.92;;;17.70;68.50;;;;;;5125431;27;20032;-43
2022/05/02 15:19:47;;;;;;;4.82;3.83;;;17.70;69.20;;;;;;5128739;27;20123;-42
2022/05/02 15:22:13;;;;;;;4.53;3.58;;;17.60;69.40;;;;;;5108239;27;20058;-41
2022/05/02 15:24:42;;;;;;;6.53;3.90;;;17.70;69.60;;;;;;5127449;27;20435;-42
2022/05/02 15:27:09;;;;;;;5.43;3.67;;;17.70;69.40;;;;;;5125093;27;20036;-44
2022/05/02 15:37:52;;;;;;;5.60;3.90;;;17.80;68.90;;;;;;5125601;27;20040;-44
2022/05/02 15:40:19;;;;;;;5.78;3.60;;;18.00;68.70;;;;;;5125541;27;20509;-43
2022/05/02 15:42:45;;;;;;;4.50;3.22;;;18.10;68.70;;;;;;5126904;27;20052;-43
2022/05/02 15:45:12;;;;;;;4.25;3.20;;;18.30;68.40;;;;;;5132905;27;20084;-45
2022/05/02 15:47:39;;;;;;;5.07;3.35;;;18.50;68.20;;;;;;5135171;27;20043;-43
2022/05/02 15:50:06;;;;;;;3.42;3.13;;;18.50;67.20;;;;;;5134444;27;20035;-45
2022/05/02 15:52:32;;;;;;;3.70;3.10;;;18.40;67.80;;;;;;5116822;27;20039;-43
2022/05/02 15:54:59;;;;;;;4.30;3.38;;;18.60;67.70;;;;;;5113046;28;20047;-46
2022/05/02 15:57:32;;;;;;;4.95;3.22;;;18.50;67.40;;;;;;5113514;28;20115;-44
2022/05/02 15:59:58;;;;;;;3.65;3.30;;;18.20;67.20;;;;;;5114374;28;20131;-45
2022/05/02 16:02:25;;;;;;;4.68;3.28;;;18.00;67.90;;;;;;5113368;28;20036;-43
2022/05/02 16:04:52;;;;;;;5.10;3.53;;;17.80;68.50;;;;;;5114149;28;20065;-44
2022/05/02 16:12:50;;;;;;;;;;;17.80;68.70;;;;;;5114522;28;20061;-49
2022/05/02 16:15:17;;;;;;;5.38;4.05;;;17.70;68.60;;;;;;5114156;28;19934;-43
2022/05/02 16:17:46;;;;;;;7.32;4.30;;;17.60;68.80;;;;;;5114492;28;20070;-46
2022/05/02 16:20:14;;;;;;;6.05;4.22;;;17.50;69.10;;;;;;5102785;28;20079;-42
2022/05/02 16:22:41;;;;;;;5.43;4.05;;;17.50;69.80;;;;;;5107420;28;20062;-44
2022/05/02 16:25:15;;;;;;;6.28;4.65;;;17.40;69.40;;;;;;5113862;28;20046;-43
2022/05/02 16:27:42;;;;;;;7.30;4.07;;;17.30;69.80;;;;;;5113515;28;20031;-42
2022/05/02 16:30:08;;;;;;;5.28;3.75;;;17.30;69.70;;;;;;5113729;28;20097;-42
2022/05/02 16:32:36;;;;;;;5.88;4.00;;;17.30;70.30;;;;;;5113691;28;20085;-45